sensor_id;sensor_type;location;lat;lon;timestamp;pressure;altitude;pressure_sealevel;temperature;humidity
74125;BME280;62475;52.192;5.396;2022-09-09T00:03:54;100838.84;;;14.36;100.00
74125;BME280;62475;52.192;5.396;2022-09-09T00:06:27;100822.22;;;14.28;100.00
74125;BME280;62475;52.192;5.396;2022-09-09T00:16:48;100803.94;;;14.18;100.00
74125;BME280;62475;52.192;5.396;2022-09-09T00:22:19;100817.28;;;14.25;100.00
74125;BME280;62475;52.192;5.396;2022-09-09T00:24:49;100807.53;;;14.19;100.00
74125;BME280;62475;52.192;5.396;2022-09-09T00:27:29;100814.34;;;14.21;100.00
74125;BME280;62475;52.192;5.396;2022-09-09T00:32:49;100817.81;;;14.27;100.00
74125;BME280;62475;52.192;5.396;2022-09-09T00:35:22;100808.81;;;14.21;100.00
74125;BME280;62475;52.192;5.396;2022-09-09T00:37:54;100819.16;;;14.29;100.00
74125;BME280;62475;52.192;5.396;2022-09-09T00:40:38;100812.59;;;14.25;100.00
74125;BME280;62475;52.192;5.396;2022-09-09T00:43:28;100823.63;;;14.25;100.00
74125;BME280;62475;52.192;5.396;2022-09-09T00:46:45;100816.63;;;14.19;100.00
74125;BME280;62475;52.192;5.396;2022-09-09T00:52:17;100822.97;;;14.20;100.00
74125;BME280;62475;52.192;5.396;2022-09-09T00:57:33;100820.84;;;14.17;100.00
74125;BME280;62475;52.192;5.396;2022-09-09T01:00:19;100820.81;;;14.08;100.00
74125;BME280;62475;52.192;5.396;2022-09-09T01:05:36;100816.34;;;13.99;100.00
74125;BME280;62475;52.192;5.396;2022-09-09T01:08:18;100824.03;;;14.02;100.00
74125;BME280;62475;52.192;5.396;2022-09-09T01:10:50;100831.50;;;14.01;100.00
74125;BME280;62475;52.192;5.396;2022-09-09T01:13:35;100819.25;;;13.94;100.00
74125;BME280;62475;52.192;5.396;2022-09-09T01:16:03;100836.50;;;13.99;100.00
74125;BME280;62475;52.192;5.396;2022-09-09T01:18:32;100824.16;;;13.97;100.00
74125;BME280;62475;52.192;5.396;2022-09-09T01:26:36;100822.34;;;13.92;100.00
74125;BME280;62475;52.192;5.396;2022-09-09T01:29:07;100818.28;;;13.90;100.00
74125;BME280;62475;52.192;5.396;2022-09-09T01:31:42;100807.72;;;13.92;100.00
74125;BME280;62475;52.192;5.396;2022-09-09T01:34:17;100790.72;;;13.76;100.00
74125;BME280;62475;52.192;5.396;2022-09-09T01:39:11;100794.34;;;13.85;100.00
74125;BME280;62475;52.192;5.396;2022-09-09T01:41:38;100804.44;;;13.81;100.00
74125;BME280;62475;52.192;5.396;2022-09-09T01:44:03;100791.19;;;13.69;100.00
74125;BME280;62475;52.192;5.396;2022-09-09T01:46:29;100781.75;;;13.62;100.00
74125;BME280;62475;52.192;5.396;2022-09-09T01:48:54;100818.34;;;13.76;100.00
74125;BME280;62475;52.192;5.396;2022-09-09T01:51:20;100779.41;;;13.55;100.00
74125;BME280;62475;52.192;5.396;2022-09-09T01:53:46;100811.00;;;13.72;100.00
74125;BME280;62475;52.192;5.396;2022-09-09T01:56:35;100804.34;;;13.73;100.00
74125;BME280;62475;52.192;5.396;2022-09-09T02:09:47;100792.47;;;13.63;100.00
74125;BME280;62475;52.192;5.396;2022-09-09T02:12:16;100771.75;;;13.52;100.00
74125;BME280;62475;52.192;5.396;2022-09-09T02:14:49;100772.53;;;13.44;100.00
74125;BME280;62475;52.192;5.396;2022-09-09T02:17:22;100767.00;;;13.44;100.00
74125;BME280;62475;52.192;5.396;2022-09-09T02:19:57;100765.38;;;13.43;100.00
74125;BME280;62475;52.192;5.396;2022-09-09T02:22:26;100715.03;;;13.16;100.00
74125;BME280;62475;52.192;5.396;2022-09-09T02:24:56;100781.50;;;13.50;100.00
74125;BME280;62475;52.192;5.396;2022-09-09T02:27:24;100773.81;;;13.47;100.00
74125;BME280;62475;52.192;5.396;2022-09-09T02:29:51;100772.53;;;13.44;100.00
74125;BME280;62475;52.192;5.396;2022-09-09T02:32:21;100781.50;;;13.50;100.00
74125;BME280;62475;52.192;5.396;2022-09-09T02:34:55;100774.53;;;13.52;100.00
74125;BME280;62475;52.192;5.396;2022-09-09T02:37:24;100770.28;;;13.46;100.00
74125;BME280;62475;52.192;5.396;2022-09-09T02:39:54;100779.72;;;13.54;100.00
74125;BME280;62475;52.192;5.396;2022-09-09T02:42:19;100766.56;;;13.51;100.00
74125;BME280;62475;52.192;5.396;2022-09-09T02:44:45;100768.19;;;13.52;100.00
74125;BME280;62475;52.192;5.396;2022-09-09T02:47:30;100776.97;;;13.54;100.00
74125;BME280;62475;52.192;5.396;2022-09-09T02:52:36;100774.72;;;13.56;100.00
74125;BME280;62475;52.192;5.396;2022-09-09T02:55:24;100784.13;;;13.55;100.00
74125;BME280;62475;52.192;5.396;2022-09-09T02:57:53;100725.06;;;13.12;100.00
74125;BME280;62475;52.192;5.396;2022-09-09T03:00:27;100750.88;;;13.38;100.00
74125;BME280;62475;52.192;5.396;2022-09-09T03:02:53;100755.28;;;13.39;100.00
74125;BME280;62475;52.192;5.396;2022-09-09T03:05:20;100760.03;;;13.47;100.00
74125;BME280;62475;52.192;5.396;2022-09-09T03:07:45;100770.75;;;13.48;100.00
74125;BME280;62475;52.192;5.396;2022-09-09T03:10:11;100768.63;;;13.45;100.00
74125;BME280;62475;52.192;5.396;2022-09-09T03:12:36;100758.38;;;13.37;100.00
74125;BME280;62475;52.192;5.396;2022-09-09T03:15:02;100740.75;;;13.25;100.00
74125;BME280;62475;52.192;5.396;2022-09-09T03:17:27;100725.75;;;13.17;100.00
74125;BME280;62475;52.192;5.396;2022-09-09T03:19:53;100766.63;;;13.37;100.00
74125;BME280;62475;52.192;5.396;2022-09-09T03:22:19;100768.91;;;13.35;100.00
74125;BME280;62475;52.192;5.396;2022-09-09T03:24:45;100766.97;;;13.36;100.00
74125;BME280;62475;52.192;5.396;2022-09-09T03:27:12;100758.84;;;13.17;100.00
74125;BME280;62475;52.192;5.396;2022-09-09T03:29:39;100749.78;;;13.17;100.00
74125;BME280;62475;52.192;5.396;2022-09-09T03:32:04;100775.84;;;13.33;100.00
74125;BME280;62475;52.192;5.396;2022-09-09T03:34:29;100741.25;;;13.05;100.00
74125;BME280;62475;52.192;5.396;2022-09-09T03:36:55;100761.78;;;13.21;100.00
74125;BME280;62475;52.192;5.396;2022-09-09T03:39:20;100759.16;;;13.16;100.00
74125;BME280;62475;52.192;5.396;2022-09-09T03:41:46;100747.13;;;13.12;100.00
74125;BME280;62475;52.192;5.396;2022-09-09T03:44:13;100759.16;;;13.16;100.00
74125;BME280;62475;52.192;5.396;2022-09-09T03:46:38;100753.06;;;13.05;100.00
74125;BME280;62475;52.192;5.396;2022-09-09T03:49:04;100772.50;;;13.22;100.00
74125;BME280;62475;52.192;5.396;2022-09-09T03:51:32;100713.50;;;12.88;100.00
74125;BME280;62475;52.192;5.396;2022-09-09T03:54:01;100766.81;;;13.19;100.00
74125;BME280;62475;52.192;5.396;2022-09-09T03:56:30;100739.59;;;13.04;100.00
74125;BME280;62475;52.192;5.396;2022-09-09T03:58:55;100763.84;;;13.15;100.00
74125;BME280;62475;52.192;5.396;2022-09-09T04:01:20;100761.59;;;13.17;100.00
74125;BME280;62475;52.192;5.396;2022-09-09T04:03:46;100734.41;;;13.02;100.00
74125;BME280;62475;52.192;5.396;2022-09-09T04:06:12;100749.22;;;13.06;100.00
74125;BME280;62475;52.192;5.396;2022-09-09T04:08:39;100770.84;;;13.13;100.00
74125;BME280;62475;52.192;5.396;2022-09-09T04:11:05;100764.81;;;13.11;100.00
74125;BME280;62475;52.192;5.396;2022-09-09T04:13:32;100739.81;;;12.94;100.00
74125;BME280;62475;52.192;5.396;2022-09-09T04:15:59;100770.31;;;13.11;100.00
74125;BME280;62475;52.192;5.396;2022-09-09T04:18:25;100723.84;;;12.82;100.00
74125;BME280;62475;52.192;5.396;2022-09-09T04:20:52;100762.69;;;13.08;100.00
74125;BME280;62475;52.192;5.396;2022-09-09T04:23:18;100761.84;;;13.07;100.00
74125;BME280;62475;52.192;5.396;2022-09-09T04:25:54;100752.28;;;13.05;100.00
74125;BME280;62475;52.192;5.396;2022-09-09T04:28:21;100749.03;;;13.03;100.00
74125;BME280;62475;52.192;5.396;2022-09-09T04:30:47;100749.41;;;12.96;100.00
74125;BME280;62475;52.192;5.396;2022-09-09T04:33:14;100737.88;;;12.94;100.00
74125;BME280;62475;52.192;5.396;2022-09-09T04:35:44;100724.97;;;12.81;100.00
74125;BME280;62475;52.192;5.396;2022-09-09T04:38:10;100758.59;;;13.05;100.00
74125;BME280;62475;52.192;5.396;2022-09-09T04:40:35;100719.63;;;12.85;100.00
74125;BME280;62475;52.192;5.396;2022-09-09T04:43:02;100742.13;;;13.00;100.00
74125;BME280;62475;52.192;5.396;2022-09-09T04:45:30;100751.84;;;13.11;100.00
74125;BME280;62475;52.192;5.396;2022-09-09T04:47:56;100702.66;;;12.91;100.00
74125;BME280;62475;52.192;5.396;2022-09-09T04:50:22;100726.00;;;13.07;100.00
74125;BME280;62475;52.192;5.396;2022-09-09T04:52:47;100706.09;;;12.97;100.00
74125;BME280;62475;52.192;5.396;2022-09-09T04:55:13;100718.06;;;13.06;100.00
74125;BME280;62475;52.192;5.396;2022-09-09T04:57:39;100713.69;;;13.05;100.00
74125;BME280;62475;52.192;5.396;2022-09-09T05:00:05;100724.78;;;13.13;100.00
74125;BME280;62475;52.192;5.396;2022-09-09T05:02:31;100733.53;;;13.15;100.00
74125;BME280;62475;52.192;5.396;2022-09-09T05:04:57;100733.66;;;13.10;100.00
74125;BME280;62475;52.192;5.396;2022-09-09T05:07:23;100735.34;;;13.20;100.00
74125;BME280;62475;52.192;5.396;2022-09-09T05:09:49;100750.75;;;13.21;100.00
74125;BME280;62475;52.192;5.396;2022-09-09T05:12:15;100746.56;;;13.23;100.00
74125;BME280;62475;52.192;5.396;2022-09-09T05:14:42;100718.88;;;13.06;100.00
74125;BME280;62475;52.192;5.396;2022-09-09T05:17:07;100750.03;;;13.29;100.00
74125;BME280;62475;52.192;5.396;2022-09-09T05:19:32;100740.28;;;13.31;100.00
74125;BME280;62475;52.192;5.396;2022-09-09T05:21:58;100736.59;;;13.36;100.00
74125;BME280;62475;52.192;5.396;2022-09-09T05:24:23;100736.78;;;13.39;100.00
74125;BME280;62475;52.192;5.396;2022-09-09T05:26:48;100728.19;;;13.41;100.00
74125;BME280;62475;52.192;5.396;2022-09-09T05:29:14;100724.44;;;13.37;100.00
74125;BME280;62475;52.192;5.396;2022-09-09T05:31:39;100708.84;;;13.32;100.00
74125;BME280;62475;52.192;5.396;2022-09-09T05:34:08;100714.53;;;13.36;100.00
74125;BME280;62475;52.192;5.396;2022-09-09T05:36:33;100727.56;;;13.44;100.00
74125;BME280;62475;52.192;5.396;2022-09-09T05:38:58;100720.09;;;13.44;100.00
74125;BME280;62475;52.192;5.396;2022-09-09T05:41:24;100712.75;;;13.40;100.00
74125;BME280;62475;52.192;5.396;2022-09-09T05:43:49;100711.97;;;13.39;100.00
74125;BME280;62475;52.192;5.396;2022-09-09T05:46:25;100724.03;;;13.52;100.00
74125;BME280;62475;52.192;5.396;2022-09-09T05:48:51;100730.53;;;13.56;100.00
74125;BME280;62475;52.192;5.396;2022-09-09T05:51:19;100726.66;;;13.57;100.00
74125;BME280;62475;52.192;5.396;2022-09-09T05:53:47;100732.84;;;13.62;100.00
74125;BME280;62475;52.192;5.396;2022-09-09T05:56:15;100718.72;;;13.64;100.00
74125;BME280;62475;52.192;5.396;2022-09-09T05:58:41;100728.88;;;13.77;100.00
74125;BME280;62475;52.192;5.396;2022-09-09T06:01:14;100732.94;;;13.80;100.00
74125;BME280;62475;52.192;5.396;2022-09-09T06:03:41;100729.69;;;13.78;100.00
74125;BME280;62475;52.192;5.396;2022-09-09T06:06:08;100738.19;;;13.90;100.00
74125;BME280;62475;52.192;5.396;2022-09-09T06:08:35;100725.66;;;13.84;100.00
74125;BME280;62475;52.192;5.396;2022-09-09T06:11:06;100742.81;;;14.11;100.00
74125;BME280;62475;52.192;5.396;2022-09-09T06:13:32;100731.94;;;14.15;100.00
74125;BME280;62475;52.192;5.396;2022-09-09T06:15:58;100725.84;;;14.26;100.00
74125;BME280;62475;52.192;5.396;2022-09-09T06:18:24;100735.28;;;14.34;100.00
74125;BME280;62475;52.192;5.396;2022-09-09T06:21:23;100732.84;;;14.41;100.00
74125;BME280;62475;52.192;5.396;2022-09-09T06:23:48;100722.09;;;14.31;100.00
74125;BME280;62475;52.192;5.396;2022-09-09T06:26:21;100731.91;;;14.45;100.00
74125;BME280;62475;52.192;5.396;2022-09-09T06:28:48;100720.53;;;14.55;100.00
74125;BME280;62475;52.192;5.396;2022-09-09T06:31:16;100712.09;;;14.69;100.00
74125;BME280;62475;52.192;5.396;2022-09-09T06:33:49;100715.50;;;14.83;99.16
74125;BME280;62475;52.192;5.396;2022-09-09T06:36:20;100708.03;;;14.75;98.64
74125;BME280;62475;52.192;5.396;2022-09-09T06:38:46;100722.97;;;14.91;99.95
74125;BME280;62475;52.192;5.396;2022-09-09T06:43:22;100725.09;;;15.20;98.04
74125;BME280;62475;52.192;5.396;2022-09-09T06:48:19;100713.13;;;15.70;97.51
74125;BME280;62475;52.192;5.396;2022-09-09T06:50:44;100718.50;;;15.67;95.92
74125;BME280;62475;52.192;5.396;2022-09-09T06:53:09;100728.84;;;15.41;98.22
74125;BME280;62475;52.192;5.396;2022-09-09T06:55:35;100729.47;;;15.21;98.88
74125;BME280;62475;52.192;5.396;2022-09-09T06:58:00;100709.13;;;15.25;98.89
74125;BME280;62475;52.192;5.396;2022-09-09T07:00:26;100700.19;;;15.20;97.98
74125;BME280;62475;52.192;5.396;2022-09-09T07:02:51;100726.38;;;15.48;98.02
74125;BME280;62475;52.192;5.396;2022-09-09T07:05:17;100717.72;;;15.58;97.29
74125;BME280;62475;52.192;5.396;2022-09-09T07:07:42;100714.75;;;15.71;97.50
74125;BME280;62475;52.192;5.396;2022-09-09T07:10:08;100707.13;;;15.60;95.73
74125;BME280;62475;52.192;5.396;2022-09-09T07:12:33;100733.19;;;15.59;96.92
74125;BME280;62475;52.192;5.396;2022-09-09T07:14:58;100728.75;;;15.75;96.98
74125;BME280;62475;52.192;5.396;2022-09-09T07:17:24;100718.97;;;15.77;95.99
74125;BME280;62475;52.192;5.396;2022-09-09T07:19:49;100717.81;;;15.78;96.16
74125;BME280;62475;52.192;5.396;2022-09-09T07:22:14;100723.38;;;15.70;96.34
74125;BME280;62475;52.192;5.396;2022-09-09T07:24:41;100731.34;;;15.71;96.73
74125;BME280;62475;52.192;5.396;2022-09-09T07:27:06;100727.13;;;15.65;97.08
74125;BME280;62475;52.192;5.396;2022-09-09T07:29:31;100706.81;;;15.53;96.79
74125;BME280;62475;52.192;5.396;2022-09-09T07:31:56;100702.09;;;15.45;97.82
74125;BME280;62475;52.192;5.396;2022-09-09T07:34:23;100731.53;;;15.66;97.21
74125;BME280;62475;52.192;5.396;2022-09-09T07:36:48;100722.94;;;15.51;95.79
74125;BME280;62475;52.192;5.396;2022-09-09T07:39:14;100722.91;;;15.59;96.04
74125;BME280;62475;52.192;5.396;2022-09-09T07:41:45;100740.84;;;15.62;96.69
74125;BME280;62475;52.192;5.396;2022-09-09T07:44:13;100733.31;;;15.71;96.28
74125;BME280;62475;52.192;5.396;2022-09-09T07:46:39;100725.28;;;15.78;94.85
74125;BME280;62475;52.192;5.396;2022-09-09T07:49:05;100727.78;;;16.09;94.76
74125;BME280;62475;52.192;5.396;2022-09-09T07:51:35;100731.25;;;16.35;93.94
74125;BME280;62475;52.192;5.396;2022-09-09T07:54:04;100707.47;;;16.25;93.27
74125;BME280;62475;52.192;5.396;2022-09-09T07:56:30;100718.84;;;16.32;92.89
74125;BME280;62475;52.192;5.396;2022-09-09T07:58:57;100722.72;;;16.48;92.31
74125;BME280;62475;52.192;5.396;2022-09-09T08:01:27;100719.72;;;16.53;92.60
74125;BME280;62475;52.192;5.396;2022-09-09T08:03:59;100725.56;;;16.31;91.83
74125;BME280;62475;52.192;5.396;2022-09-09T08:06:26;100718.91;;;16.53;93.12
74125;BME280;62475;52.192;5.396;2022-09-09T08:08:52;100723.41;;;16.66;90.44
74125;BME280;62475;52.192;5.396;2022-09-09T08:11:18;100726.41;;;16.52;91.97
74125;BME280;62475;52.192;5.396;2022-09-09T08:13:44;100737.13;;;16.62;92.13
74125;BME280;62475;52.192;5.396;2022-09-09T08:18:38;100724.09;;;16.25;92.53
74125;BME280;62475;52.192;5.396;2022-09-09T08:21:25;100738.88;;;16.38;93.19
74125;BME280;62475;52.192;5.396;2022-09-09T08:23:54;100733.06;;;16.31;93.33
74125;BME280;62475;52.192;5.396;2022-09-09T08:26:21;100739.72;;;16.38;92.25
74125;BME280;62475;52.192;5.396;2022-09-09T08:28:49;100736.16;;;16.29;91.61
74125;BME280;62475;52.192;5.396;2022-09-09T08:31:21;100730.81;;;16.24;92.31
74125;BME280;62475;52.192;5.396;2022-09-09T08:33:47;100726.41;;;16.23;93.20
74125;BME280;62475;52.192;5.396;2022-09-09T08:36:19;100742.25;;;16.14;91.76
74125;BME280;62475;52.192;5.396;2022-09-09T08:38:49;100715.94;;;16.00;91.65
74125;BME280;62475;52.192;5.396;2022-09-09T08:44:04;100758.88;;;16.23;91.22
74125;BME280;62475;52.192;5.396;2022-09-09T08:49:35;100755.09;;;16.27;91.24
74125;BME280;62475;52.192;5.396;2022-09-09T08:52:11;100764.41;;;16.23;91.11
74125;BME280;62475;52.192;5.396;2022-09-09T08:54:37;100759.13;;;16.30;92.39
74125;BME280;62475;52.192;5.396;2022-09-09T08:57:11;100758.47;;;16.33;91.13
74125;BME280;62475;52.192;5.396;2022-09-09T08:59:39;100767.59;;;16.33;90.32
74125;BME280;62475;52.192;5.396;2022-09-09T09:02:21;100761.06;;;16.38;91.56
74125;BME280;62475;52.192;5.396;2022-09-09T09:05:05;100760.25;;;16.37;90.03
74125;BME280;62475;52.192;5.396;2022-09-09T09:10:02;100764.63;;;16.47;89.30
74125;BME280;62475;52.192;5.396;2022-09-09T09:12:35;100765.25;;;16.44;89.59
74125;BME280;62475;52.192;5.396;2022-09-09T09:15:11;100769.03;;;16.39;89.44
74125;BME280;62475;52.192;5.396;2022-09-09T09:17:39;100753.28;;;16.31;89.76
74125;BME280;62475;52.192;5.396;2022-09-09T09:20:10;100769.03;;;16.39;89.85
74125;BME280;62475;52.192;5.396;2022-09-09T09:22:44;100769.19;;;16.43;90.05
74125;BME280;62475;52.192;5.396;2022-09-09T09:25:23;100747.06;;;16.34;89.80
74125;BME280;62475;52.192;5.396;2022-09-09T09:28:00;100777.34;;;16.48;90.05
74125;BME280;62475;52.192;5.396;2022-09-09T09:30:31;100768.38;;;16.42;89.84
74125;BME280;62475;52.192;5.396;2022-09-09T09:33:06;100777.00;;;16.49;89.87
74125;BME280;62475;52.192;5.396;2022-09-09T09:35:35;100768.69;;;16.49;89.81
74125;BME280;62475;52.192;5.396;2022-09-09T09:38:01;100766.91;;;16.45;89.25
74125;BME280;62475;52.192;5.396;2022-09-09T09:40:27;100768.19;;;16.47;89.76
74125;BME280;62475;52.192;5.396;2022-09-09T09:42:57;100757.59;;;16.49;89.34
74125;BME280;62475;52.192;5.396;2022-09-09T09:45:34;100755.50;;;16.46;89.52
74125;BME280;62475;52.192;5.396;2022-09-09T09:48:06;100769.94;;;16.60;88.75
74125;BME280;62475;52.192;5.396;2022-09-09T09:50:33;100778.88;;;16.66;88.39
74125;BME280;62475;52.192;5.396;2022-09-09T09:53:04;100734.59;;;16.40;88.47
74125;BME280;62475;52.192;5.396;2022-09-09T09:55:33;100740.31;;;16.44;88.30
74125;BME280;62475;52.192;5.396;2022-09-09T09:58:05;100729.53;;;16.42;88.22
74125;BME280;62475;52.192;5.396;2022-09-09T10:00:32;100768.06;;;16.73;88.48
74125;BME280;62475;52.192;5.396;2022-09-09T10:03:00;100768.78;;;16.82;88.15
74125;BME280;62475;52.192;5.396;2022-09-09T10:05:27;100767.25;;;16.93;88.89
74125;BME280;62475;52.192;5.396;2022-09-09T10:08:05;100771.25;;;16.54;90.35
74125;BME280;62475;52.192;5.396;2022-09-09T10:19:01;100766.13;;;16.65;92.39
74125;BME280;62475;52.192;5.396;2022-09-09T10:32:56;100768.91;;;16.65;90.41
74125;BME280;62475;52.192;5.396;2022-09-09T10:36:19;100770.97;;;16.76;89.76
74125;BME280;62475;52.192;5.396;2022-09-09T10:38:25;100779.03;;;16.69;89.10
74125;BME280;62475;52.192;5.396;2022-09-09T10:56:37;100769.03;;;16.39;94.59
74125;BME280;62475;52.192;5.396;2022-09-09T10:59:14;100756.50;;;16.33;94.93
74125;BME280;62475;52.192;5.396;2022-09-09T11:02:05;100766.91;;;16.45;94.29
74125;BME280;62475;52.192;5.396;2022-09-09T11:04:49;100771.31;;;16.37;95.17
74125;BME280;62475;52.192;5.396;2022-09-09T11:07:39;100774.19;;;16.20;95.40
74125;BME280;62475;52.192;5.396;2022-09-09T11:13:03;100749.34;;;16.61;93.27
74125;BME280;62475;52.192;5.396;2022-09-09T11:15:40;100713.84;;;16.75;94.20
74125;BME280;62475;52.192;5.396;2022-09-09T11:18:13;100761.09;;;17.29;91.72
74125;BME280;62475;52.192;5.396;2022-09-09T11:20:41;100762.97;;;17.37;91.16
74125;BME280;62475;52.192;5.396;2022-09-09T11:23:20;100759.63;;;17.43;90.55
74125;BME280;62475;52.192;5.396;2022-09-09T11:25:53;100752.75;;;17.29;91.19
74125;BME280;62475;52.192;5.396;2022-09-09T11:28:43;100735.97;;;17.25;90.15
74125;BME280;62475;52.192;5.396;2022-09-09T11:32:06;100755.06;;;17.27;90.70
74125;BME280;62475;52.192;5.396;2022-09-09T11:37:14;100750.50;;;17.22;90.91
74125;BME280;62475;52.192;5.396;2022-09-09T11:42:38;100738.91;;;17.61;89.11
74125;BME280;62475;52.192;5.396;2022-09-09T11:45:11;100744.59;;;17.44;88.26
74125;BME280;62475;52.192;5.396;2022-09-09T11:47:52;100727.59;;;17.46;88.43
74125;BME280;62475;52.192;5.396;2022-09-09T11:52:45;100747.47;;;17.68;88.14
74125;BME280;62475;52.192;5.396;2022-09-09T11:55:25;100742.59;;;17.65;86.01
74125;BME280;62475;52.192;5.396;2022-09-09T11:58:04;100730.81;;;17.36;86.30
74125;BME280;62475;52.192;5.396;2022-09-09T12:00:37;100742.97;;;17.43;87.84
74125;BME280;62475;52.192;5.396;2022-09-09T12:03:36;100745.22;;;17.29;91.33
74125;BME280;62475;52.192;5.396;2022-09-09T12:06:18;100726.94;;;16.95;93.33
74125;BME280;62475;52.192;5.396;2022-09-09T12:08:49;100748.59;;;16.81;93.03
74125;BME280;62475;52.192;5.396;2022-09-09T12:11:29;100741.59;;;16.96;93.49
74125;BME280;62475;52.192;5.396;2022-09-09T12:13:58;100729.91;;;17.11;93.36
74125;BME280;62475;52.192;5.396;2022-09-09T12:16:34;100719.72;;;17.15;93.49
74125;BME280;62475;52.192;5.396;2022-09-09T12:21:45;100744.06;;;17.51;92.11
74125;BME280;62475;52.192;5.396;2022-09-09T12:24:26;100738.19;;;17.32;90.34
74125;BME280;62475;52.192;5.396;2022-09-09T12:27:20;100749.44;;;17.15;94.20
74125;BME280;62475;52.192;5.396;2022-09-09T12:30:02;100727.53;;;16.80;95.49
74125;BME280;62475;52.192;5.396;2022-09-09T12:32:29;100735.00;;;16.59;94.98
74125;BME280;62475;52.192;5.396;2022-09-09T12:35:00;100700.31;;;16.24;95.24
74125;BME280;62475;52.192;5.396;2022-09-09T12:37:35;100740.84;;;16.37;97.47
74125;BME280;62475;52.192;5.396;2022-09-09T12:40:25;100740.00;;;16.37;96.84
74125;BME280;62475;52.192;5.396;2022-09-09T12:42:49;100748.78;;;16.47;96.74
74125;BME280;62475;52.192;5.396;2022-09-09T12:45:26;100741.78;;;16.70;97.14
74125;BME280;62475;52.192;5.396;2022-09-09T12:47:57;100718.66;;;17.08;95.62
74125;BME280;62475;52.192;5.396;2022-09-09T12:50:28;100710.06;;;17.33;94.44
74125;BME280;62475;52.192;5.396;2022-09-09T12:53:39;100732.69;;;17.44;93.19
74125;BME280;62475;52.192;5.396;2022-09-09T12:55:53;100733.59;;;17.36;93.48
74125;BME280;62475;52.192;5.396;2022-09-09T12:58:19;100710.13;;;17.13;91.68
74125;BME280;62475;52.192;5.396;2022-09-09T13:00:53;100709.50;;;17.07;92.73
74125;BME280;62475;52.192;5.396;2022-09-09T13:03:21;100714.06;;;17.24;93.26
74125;BME280;62475;52.192;5.396;2022-09-09T13:05:48;100722.97;;;17.82;91.50
74125;BME280;62475;52.192;5.396;2022-09-09T13:08:14;100728.06;;;18.04;89.35
74125;BME280;62475;52.192;5.396;2022-09-09T13:11:02;100731.44;;;17.98;89.41
74125;BME280;62475;52.192;5.396;2022-09-09T13:13:35;100726.53;;;17.83;89.20
74125;BME280;62475;52.192;5.396;2022-09-09T13:16:02;100734.09;;;18.06;88.86
74125;BME280;62475;52.192;5.396;2022-09-09T13:18:32;100717.97;;;17.88;87.42
74125;BME280;62475;52.192;5.396;2022-09-09T13:20:59;100726.50;;;17.71;86.23
74125;BME280;62475;52.192;5.396;2022-09-09T13:23:30;100737.22;;;17.93;87.74
74125;BME280;62475;52.192;5.396;2022-09-09T13:26:39;100734.47;;;18.05;86.44
74125;BME280;62475;52.192;5.396;2022-09-09T13:28:48;100724.72;;;18.11;86.63
74125;BME280;62475;52.192;5.396;2022-09-09T13:31:27;100710.56;;;17.80;86.84
74125;BME280;62475;52.192;5.396;2022-09-09T13:33:53;100723.91;;;18.10;85.53
74125;BME280;62475;52.192;5.396;2022-09-09T13:36:28;100722.03;;;18.02;85.01
74125;BME280;62475;52.192;5.396;2022-09-09T13:38:56;100728.38;;;17.67;86.17
74125;BME280;62475;52.192;5.396;2022-09-09T13:41:29;100721.41;;;17.61;87.55
74125;BME280;62475;52.192;5.396;2022-09-09T13:43:55;100727.78;;;17.29;89.84
74125;BME280;62475;52.192;5.396;2022-09-09T13:46:35;100719.38;;;16.96;93.94
74125;BME280;62475;52.192;5.396;2022-09-09T13:49:22;100729.91;;;16.90;95.10
74125;BME280;62475;52.192;5.396;2022-09-09T13:51:50;100724.38;;;16.90;95.41
74125;BME280;62475;52.192;5.396;2022-09-09T13:54:18;100724.72;;;17.01;96.43
74125;BME280;62475;52.192;5.396;2022-09-09T13:56:44;100720.34;;;17.00;94.59
74125;BME280;62475;52.192;5.396;2022-09-09T13:59:15;100714.09;;;17.03;94.37
74125;BME280;62475;52.192;5.396;2022-09-09T14:01:41;100723.94;;;17.00;95.36
74125;BME280;62475;52.192;5.396;2022-09-09T14:04:06;100727.91;;;17.12;95.29
74125;BME280;62475;52.192;5.396;2022-09-09T14:06:32;100730.69;;;17.12;93.69
74125;BME280;62475;52.192;5.396;2022-09-09T14:09:01;100709.66;;;17.11;93.67
74125;BME280;62475;52.192;5.396;2022-09-09T14:11:26;100729.94;;;17.23;93.40
74125;BME280;62475;52.192;5.396;2022-09-09T14:13:51;100726.00;;;17.24;93.03
74125;BME280;62475;52.192;5.396;2022-09-09T14:16:17;100710.13;;;17.13;92.15
74125;BME280;62475;52.192;5.396;2022-09-09T14:18:44;100727.78;;;17.29;93.43
74125;BME280;62475;52.192;5.396;2022-09-09T14:21:09;100712.00;;;17.21;92.63
74125;BME280;62475;52.192;5.396;2022-09-09T14:23:35;100729.28;;;17.38;91.90
74125;BME280;62475;52.192;5.396;2022-09-09T14:26:00;100721.53;;;17.32;91.94
74125;BME280;62475;52.192;5.396;2022-09-09T14:28:26;100705.22;;;17.30;92.29
74125;BME280;62475;52.192;5.396;2022-09-09T14:30:51;100717.03;;;17.39;91.68
74125;BME280;62475;52.192;5.396;2022-09-09T14:33:16;100716.09;;;17.35;92.61
74125;BME280;62475;52.192;5.396;2022-09-09T14:35:43;100713.06;;;17.28;93.17
74125;BME280;62475;52.192;5.396;2022-09-09T14:38:09;100708.06;;;17.22;92.38
74125;BME280;62475;52.192;5.396;2022-09-09T14:40:36;100719.97;;;17.22;93.84
74125;BME280;62475;52.192;5.396;2022-09-09T14:43:02;100720.31;;;17.21;92.90
74125;BME280;62475;52.192;5.396;2022-09-09T14:45:27;100713.38;;;17.15;93.72
74125;BME280;62475;52.192;5.396;2022-09-09T14:47:53;100701.88;;;17.04;94.81
74125;BME280;62475;52.192;5.396;2022-09-09T14:50:19;100709.13;;;16.96;95.67
74125;BME280;62475;52.192;5.396;2022-09-09T14:52:45;100711.88;;;16.96;96.35